^^

..:: Storico WU ::..




Lo storico viene creato da WUnderground con i dati che la stazione Meteomincio invia al loro server. L' aggiornamento viene fatto ogni 5 minuti circa, tuttavia possono esserci intervalli pił ampi a causa di errori, interruzioni di servizio o problemi nell' invio tramite FTP.


Storico stazione MeteoMincio
Giorno Sommario per Luglio 08, 2022 Unità:  Inglese    Metrico   Entrambi
Giorno Settimana Mese Anno
  Max: Min: Media:
Temperatura: 87.8 °F 64.4 °F 77 °F
Dew Point: 64.4 °F 55.4 °F 61.3 °F
Umidità: 90% 37% 62%
Velocità vento: 13.7mph 0mph 3.7mph
Raffica: 19.9mph - -
Direzione- - South
Pressione: 30.1 in 30 in -
Precipitazioni: 0 in    
 
 
Tabulato Dati per Luglio 08, 2022
Ora Temperatura Dew Point Pressione Direzione Velocità vento Raffica Umidità Intensità pioggia (oraria) Info solare Situazione
00:04 71.6 °F 64.4 °F 30 in ENE 11.2 mph 16.8 mph 81% 0 in 0.00 W/m2 unknown
00:09 71.6 °F 64.4 °F 30 in East 13 mph 19.9 mph 81% 0 in 0.00 W/m2 unknown
00:14 71.6 °F 64.4 °F 30 in ENE 13 mph 19.9 mph 79% 0 in 0.00 W/m2 unknown
00:19 71.6 °F 64.4 °F 30 in ENE 13.7 mph 17.4 mph 79% 0 in 0.00 W/m2 unknown
00:24 71.6 °F 64.4 °F 30 in ENE 9.9 mph 16.8 mph 80% 0 in 0.00 W/m2 unknown
00:29 69.8 °F 64.4 °F 30 in ENE 8.7 mph 13 mph 80% 0 in 0.00 W/m2 unknown
00:34 69.8 °F 64.4 °F 30 in East 6.8 mph 13 mph 81% 0 in 0.00 W/m2 unknown
00:39 69.8 °F 64.4 °F 30 in ENE 5 mph 8.1 mph 82% 0 in 0.00 W/m2 unknown
00:44 69.8 °F 64.4 °F 30 in ENE 5 mph 8.1 mph 82% 0 in 0.00 W/m2 unknown
00:49 69.8 °F 64.4 °F 30 in ENE 4.3 mph 8.1 mph 83% 0 in 0.00 W/m2 unknown
00:54 69.8 °F 64.4 °F 30 in ENE 3.7 mph 6.2 mph 83% 0 in 0.00 W/m2 unknown
00:59 69.8 °F 64.4 °F 30 in ENE 3.7 mph 5 mph 83% 0 in 0.00 W/m2 unknown
01:04 69.8 °F 64.4 °F 30 in ENE 4.3 mph 5 mph 83% 0 in 0.00 W/m2 unknown
01:09 69.8 °F 64.4 °F 30 in ENE 5 mph 5 mph 83% 0 in 0.00 W/m2 unknown
01:14 69.8 °F 64.4 °F 30 in ENE 3.7 mph 5 mph 83% 0 in 0.00 W/m2 unknown
01:19 69.8 °F 64.4 °F 30 in ENE 3.7 mph 5 mph 83% 0 in 0.00 W/m2 unknown
01:24 69.8 °F 64.4 °F 30 in ENE 3.7 mph 5 mph 83% 0 in 0.00 W/m2 unknown
01:29 69.8 °F 62.6 °F 30 in ENE 3.7 mph 3.7 mph 82% 0 in 0.00 W/m2 unknown
01:34 69.8 °F 62.6 °F 30 in ENE 3.7 mph 6.8 mph 82% 0 in 0.00 W/m2 unknown
01:39 69.8 °F 62.6 °F 30 in ENE 4.3 mph 6.8 mph 82% 0 in 0.00 W/m2 unknown
01:44 69.8 °F 62.6 °F 30 in ENE 5 mph 6.8 mph 82% 0 in 0.00 W/m2 unknown
01:49 69.8 °F 62.6 °F 30 in ENE 3.1 mph 6.2 mph 81% 0 in 0.00 W/m2 unknown
01:54 69.8 °F 62.6 °F 30 in ENE 3.7 mph 5 mph 81% 0 in 0.00 W/m2 unknown
01:59 69.8 °F 62.6 °F 30 in ENE 3.1 mph 5 mph 80% 0 in 0.00 W/m2 unknown
02:04 69.8 °F 62.6 °F 30 in ENE 1.2 mph 3.1 mph 80% 0 in 0.00 W/m2 unknown
02:09 69.8 °F 62.6 °F 30 in Calm   1.9 mph 80% 0 in 0.00 W/m2 unknown
02:14 69.8 °F 62.6 °F 30 in ENE 1.2 mph 2.5 mph 81% 0 in 0.00 W/m2 unknown
02:19 68 °F 62.6 °F 30 in ESE 3.7 mph 5.6 mph 82% 0 in 0.00 W/m2 unknown
02:24 68 °F 62.6 °F 30 in ESE 4.3 mph 6.2 mph 84% 0 in 0.00 W/m2 unknown
02:29 68 °F 62.6 °F 30 in East 3.7 mph 5 mph 84% 0 in 0.00 W/m2 unknown
02:34 68 °F 62.6 °F 30 in East 3.1 mph 5 mph 83% 0 in 0.00 W/m2 unknown
02:39 68 °F 62.6 °F 30 in East 3.7 mph 5 mph 83% 0 in 0.00 W/m2 unknown
02:44 68 °F 62.6 °F 30 in East 3.1 mph 5 mph 82% 0 in 0.00 W/m2 unknown
02:49 68 °F 62.6 °F 30 in ENE 3.1 mph 5 mph 82% 0 in 0.00 W/m2 unknown
02:54 68 °F 62.6 °F 30 in ENE 3.1 mph 5 mph 82% 0 in 0.00 W/m2 unknown
02:59 68 °F 62.6 °F 30 in ENE 2.5 mph 3.7 mph 81% 0 in 0.00 W/m2 unknown
03:04 68 °F 62.6 °F 30 in ENE 1.9 mph 3.7 mph 81% 0 in 0.00 W/m2 unknown
03:09 68 °F 62.6 °F 30 in East 1.2 mph 3.1 mph 81% 0 in 0.00 W/m2 unknown
03:14 68 °F 62.6 °F 30 in East 1.2 mph 1.9 mph 81% 0 in 0.00 W/m2 unknown
03:19 68 °F 62.6 °F 30 in Calm   1.2 mph 81% 0 in 0.00 W/m2 unknown
03:24 68 °F 62.6 °F 30 in East 0.6 mph 2.5 mph 81% 0 in 0.00 W/m2 unknown
03:29 68 °F 62.6 °F 30 in NE 1.2 mph 2.5 mph 81% 0 in 0.00 W/m2 unknown
03:34 68 °F 62.6 °F 30 in NE 1.2 mph 2.5 mph 81% 0 in 0.00 W/m2 unknown
03:39 68 °F 62.6 °F 30 in NE 1.2 mph 2.5 mph 81% 0 in 0.00 W/m2 unknown
03:44 68 °F 62.6 °F 30 in NNE 1.2 mph 2.5 mph 82% 0 in 0.00 W/m2 unknown
03:49 68 °F 62.6 °F 30.1 in WNW 1.9 mph 2.5 mph 84% 0 in 0.00 W/m2 unknown
03:54 66.2 °F 62.6 °F 30.1 in West 3.1 mph 3.7 mph 85% 0 in 0.00 W/m2 unknown
03:59 66.2 °F 60.8 °F 30.1 in West 2.5 mph 3.7 mph 86% 0 in 0.00 W/m2 unknown
04:04 64.4 °F 60.8 °F 30.1 in West 1.9 mph 3.1 mph 87% 0 in 0.00 W/m2 unknown
04:09 66.2 °F 60.8 °F 30.1 in West 1.2 mph 1.9 mph 87% 0 in 0.00 W/m2 unknown
04:14 66.2 °F 60.8 °F 30.1 in WSW 2.5 mph 3.7 mph 86% 0 in 0.00 W/m2 unknown
04:19 66.2 °F 60.8 °F 30.1 in WSW 5 mph 5 mph 87% 0 in 0.00 W/m2 unknown
04:24 64.4 °F 60.8 °F 30.1 in WSW 5 mph 5 mph 87% 0 in 0.00 W/m2 unknown
04:29 64.4 °F 60.8 °F 30.1 in WNW 1.9 mph 5 mph 87% 0 in 0.00 W/m2 unknown
04:34 66.2 °F 60.8 °F 30.1 in WNW 1.9 mph 2.5 mph 87% 0 in 0.00 W/m2 unknown
04:39 66.2 °F 60.8 °F 30.1 in WNW 1.9 mph 1.9 mph 86% 0 in 0.00 W/m2 unknown
04:44 66.2 °F 60.8 °F 30.1 in West 2.5 mph 3.7 mph 87% 0 in 0.00 W/m2 unknown
04:49 64.4 °F 60.8 °F 30.1 in WSW 2.5 mph 3.7 mph 88% 0 in 0.00 W/m2 unknown
04:54 64.4 °F 60.8 °F 30.1 in WSW 2.5 mph 3.7 mph 88% 0 in 0.00 W/m2 unknown
04:59 64.4 °F 60.8 °F 30.1 in WSW 1.2 mph 2.5 mph 88% 0 in 0.00 W/m2 unknown
05:04 64.4 °F 60.8 °F 30.1 in WNW 0.6 mph 1.9 mph 88% 0 in 0.00 W/m2 unknown
05:09 64.4 °F 60.8 °F 30.1 in WNW 0.6 mph 2.5 mph 88% 0 in 0.00 W/m2 unknown
05:14 64.4 °F 60.8 °F 30.1 in NW 0.6 mph 1.9 mph 88% 0 in 0.00 W/m2 unknown
05:19 64.4 °F 62.6 °F 30.1 in Calm   1.2 mph 89% 0 in 0.00 W/m2 unknown
05:24 64.4 °F 60.8 °F 30.1 in NW 0.6 mph 1.2 mph 88% 0 in 0.00 W/m2 unknown
05:29 66.2 °F 62.6 °F 30.1 in NW 1.2 mph 2.5 mph 88% 0 in 0.00 W/m2 unknown
05:34 66.2 °F 62.6 °F 30.1 in North 1.9 mph 3.7 mph 88% 0 in 0.00 W/m2 unknown
05:39 66.2 °F 60.8 °F 30.1 in North 1.2 mph 3.1 mph 87% 0 in 0.00 W/m2 unknown
05:44 66.2 °F 60.8 °F 30.1 in North 0.6 mph 2.5 mph 87% 0 in 5.00 W/m2 unknown
05:49 66.2 °F 60.8 °F 30.1 in Calm   1.9 mph 87% 0 in 7.00 W/m2 unknown
05:54 66.2 °F 62.6 °F 30.1 in Calm     88% 0 in 7.00 W/m2 unknown
05:59 64.4 °F 62.6 °F 30.1 in West 1.2 mph 3.1 mph 89% 0 in 11.00 W/m2 unknown
06:04 64.4 °F 60.8 °F 30.1 in WSW 2.5 mph 3.7 mph 89% 0 in 12.00 W/m2 unknown
06:09 64.4 °F 60.8 °F 30.1 in WSW 1.2 mph 3.1 mph 89% 0 in 14.00 W/m2 unknown
06:14 64.4 °F 60.8 °F 30.1 in WSW 0.6 mph 1.9 mph 90% 0 in 14.00 W/m2 unknown
06:19 64.4 °F 62.6 °F 30.1 in West 0.6 mph 2.5 mph 90% 0 in 16.00 W/m2 unknown
06:24 66.2 °F 62.6 °F 30.1 in WNW 1.2 mph 2.5 mph 89% 0 in 18.00 W/m2 unknown
06:29 66.2 °F 62.6 °F 30.1 in WNW 0.6 mph 1.9 mph 89% 0 in 21.00 W/m2 unknown
06:34 66.2 °F 62.6 °F 30.1 in WNW 1.9 mph 2.5 mph 88% 0 in 35.00 W/m2 unknown
06:39 66.2 °F 62.6 °F 30.1 in WNW 1.2 mph 2.5 mph 87% 0 in 46.00 W/m2 unknown
06:44 66.2 °F 62.6 °F 30.1 in WNW 1.2 mph 2.5 mph 87% 0 in 54.00 W/m2 unknown
06:49 66.2 °F 62.6 °F 30.1 in WNW 1.2 mph 2.5 mph 88% 0 in 63.00 W/m2 unknown
06:54 68 °F 62.6 °F 30.1 in WNW 2.5 mph 3.7 mph 87% 0 in 72.00 W/m2 unknown
06:59 68 °F 62.6 °F 30.1 in WNW 1.9 mph 3.7 mph 86% 0 in 79.00 W/m2 unknown
07:04 68 °F 62.6 °F 30.1 in WNW 1.9 mph 3.1 mph 85% 0 in 93.00 W/m2 unknown
07:09 68 °F 62.6 °F 30.1 in WNW 1.2 mph 2.5 mph 85% 0 in 107.00 W/m2 unknown
07:14 68 °F 62.6 °F 30.1 in WNW 1.9 mph 3.7 mph 84% 0 in 121.00 W/m2 unknown
07:19 69.8 °F 64.4 °F 30.1 in WNW 2.5 mph 3.7 mph 83% 0 in 139.00 W/m2 unknown
07:24 69.8 °F 64.4 °F 30.1 in WNW 2.5 mph 3.7 mph 82% 0 in 155.00 W/m2 unknown
07:29 69.8 °F 64.4 °F 30.1 in WNW 1.9 mph 3.1 mph 82% 0 in 171.00 W/m2 unknown
07:34 69.8 °F 64.4 °F 30.1 in West 2.5 mph 3.7 mph 82% 0 in 183.00 W/m2 unknown
07:39 69.8 °F 64.4 °F 30.1 in West 2.5 mph 3.7 mph 80% 0 in 195.00 W/m2 unknown
07:44 69.8 °F 64.4 °F 30.1 in WSW 2.5 mph 3.7 mph 80% 0 in 207.00 W/m2 unknown
07:49 69.8 °F 64.4 °F 30.1 in West 1.9 mph 3.1 mph 80% 0 in 225.00 W/m2 unknown
07:54 71.6 °F 64.4 °F 30.1 in West 1.2 mph 2.5 mph 79% 0 in 237.00 W/m2 unknown
07:59 71.6 °F 62.6 °F 30.1 in WSW 3.1 mph 3.7 mph 74% 0 in 251.00 W/m2 unknown
08:04 71.6 °F 62.6 °F 30.1 in WSW 2.5 mph 3.7 mph 75% 0 in 265.00 W/m2 unknown
08:09 71.6 °F 62.6 °F 30.1 in West 3.1 mph 3.7 mph 74% 0 in 278.00 W/m2 unknown
08:14 71.6 °F 62.6 °F 30.1 in WNW 2.5 mph 3.7 mph 74% 0 in 292.00 W/m2 unknown
08:19 73.4 °F 62.6 °F 30.1 in WNW 2.5 mph 3.7 mph 73% 0 in 308.00 W/m2 unknown
08:24 73.4 °F 62.6 °F 30.1 in WNW 2.5 mph 3.7 mph 71% 0 in 322.00 W/m2 unknown
08:29 73.4 °F 62.6 °F 30.1 in WSW 2.5 mph 3.7 mph 70% 0 in 336.00 W/m2 unknown
08:34 73.4 °F 62.6 °F 30.1 in WSW 2.5 mph 3.7 mph 70% 0 in 352.00 W/m2 unknown
08:39 73.4 °F 62.6 °F 30.1 in West 2.5 mph 3.7 mph 68% 0 in 366.00 W/m2 unknown
08:44 73.4 °F 62.6 °F 30.1 in WSW 3.1 mph 5 mph 68% 0 in 378.00 W/m2 unknown
08:49 73.4 °F 62.6 °F 30.1 in WSW 3.7 mph 5 mph 68% 0 in 392.00 W/m2 unknown
08:54 75.2 °F 62.6 °F 30.1 in WSW 2.5 mph 5 mph 66% 0 in 406.00 W/m2 unknown
08:59 75.2 °F 62.6 °F 30.1 in SW 3.1 mph 3.7 mph 66% 0 in 422.00 W/m2 unknown
09:04 75.2 °F 60.8 °F 30.1 in WSW 3.1 mph 3.7 mph 63% 0 in 436.00 W/m2 unknown
09:09 75.2 °F 62.6 °F 30.1 in WNW 3.1 mph 3.7 mph 64% 0 in 448.00 W/m2 unknown
09:14 75.2 °F 62.6 °F 30.1 in West 3.1 mph 3.7 mph 64% 0 in 462.00 W/m2 unknown
09:19 75.2 °F 62.6 °F 30.1 in West 2.5 mph 3.7 mph 64% 0 in 473.00 W/m2 unknown
09:24 77 °F 62.6 °F 30.1 in West 2.5 mph 3.7 mph 63% 0 in 489.00 W/m2 unknown
09:29 77 °F 62.6 °F 30.1 in WSW 1.9 mph 3.7 mph 63% 0 in 501.00 W/m2 unknown
09:34 77 °F 62.6 °F 30.1 in SSW 3.7 mph 5 mph 63% 0 in 517.00 W/m2 unknown
09:39 77 °F 62.6 °F 30.1 in WSW 3.7 mph 5 mph 64% 0 in 529.00 W/m2 unknown
09:44 77 °F 62.6 °F 30.1 in West 4.3 mph 5 mph 64% 0 in 543.00 W/m2 unknown
09:49 77 °F 62.6 °F 30.1 in WSW 4.3 mph 5 mph 63% 0 in 550.00 W/m2 unknown
09:54 77 °F 62.6 °F 30.1 in West 4.3 mph 5 mph 61% 0 in 564.00 W/m2 unknown
09:59 77 °F 62.6 °F 30.1 in WSW 4.3 mph 6.2 mph 61% 0 in 578.00 W/m2 unknown
10:04 77 °F 62.6 °F 30.1 in SW 3.7 mph 6.2 mph 59% 0 in 591.00 W/m2 unknown
10:09 77 °F 62.6 °F 30.1 in SW 3.7 mph 5 mph 62% 0 in 605.00 W/m2 unknown
10:14 77 °F 62.6 °F 30.1 in SW 4.3 mph 5 mph 62% 0 in 621.00 W/m2 unknown
10:19 77 °F 62.6 °F 30.1 in WSW 4.3 mph 6.2 mph 61% 0 in 633.00 W/m2 unknown
10:24 77 °F 62.6 °F 30.1 in West 3.7 mph 6.2 mph 60% 0 in 640.00 W/m2 unknown
10:29 78.8 °F 62.6 °F 30.1 in WSW 2.5 mph 5 mph 60% 0 in 650.00 W/m2 unknown
10:34 78.8 °F 62.6 °F 30.1 in South 3.1 mph 5 mph 59% 0 in 663.00 W/m2 unknown
10:39 78.8 °F 62.6 °F 30.1 in SW 3.1 mph 5 mph 59% 0 in 671.00 W/m2 unknown
10:44 78.8 °F 62.6 °F 30.1 in WSW 4.3 mph 5 mph 58% 0 in 684.00 W/m2 unknown
10:49 78.8 °F 62.6 °F 30.1 in WSW 5 mph 5 mph 57% 0 in 694.00 W/m2 unknown
10:54 78.8 °F 60.8 °F 30.1 in WSW 3.1 mph 3.7 mph 55% 0 in 708.00 W/m2 unknown
10:59 78.8 °F 62.6 °F 30.1 in West 4.3 mph 6.2 mph 55% 0 in 714.00 W/m2 unknown
11:04 80.6 °F 62.6 °F 30.1 in WSW 5 mph 6.2 mph 55% 0 in 722.00 W/m2 unknown
11:09 80.6 °F 62.6 °F 30.1 in South 3.1 mph 3.7 mph 55% 0 in 733.00 W/m2 unknown
11:14 80.6 °F 62.6 °F 30.1 in SSW 5 mph 6.2 mph 55% 0 in 744.00 W/m2 unknown
11:19 80.6 °F 62.6 °F 30.1 in West 5 mph 6.2 mph 54% 0 in 751.00 W/m2 unknown
11:24 80.6 °F 62.6 °F 30.1 in WSW 4.3 mph 6.2 mph 54% 0 in 763.00 W/m2 unknown
11:29 80.6 °F 62.6 °F 30.1 in SSE 3.7 mph 6.2 mph 53% 0 in 770.00 W/m2 unknown
11:34 80.6 °F 64.4 °F 30.1 in NNE 5.6 mph 6.8 mph 56% 0 in 780.00 W/m2 unknown
11:39 80.6 °F 62.6 °F 30.1 in West 5 mph 6.8 mph 54% 0 in 788.00 W/m2 unknown
11:44 80.6 °F 62.6 °F 30.1 in SW 5 mph 6.8 mph 54% 0 in 796.00 W/m2 unknown
11:49 80.6 °F 62.6 °F 30.1 in SW 5.6 mph 6.8 mph 53% 0 in 803.00 W/m2 unknown
11:54 82.4 °F 62.6 °F 30.1 in SW 5.6 mph 8.1 mph 54% 0 in 810.00 W/m2 unknown
11:59 82.4 °F 60.8 °F 30.1 in SSE 5.6 mph 8.1 mph 52% 0 in 817.00 W/m2 unknown
12:04 82.4 °F 62.6 °F 30.1 in South 5.6 mph 8.1 mph 52% 0 in 821.00 W/m2 unknown
12:09 82.4 °F 62.6 °F 30.1 in WNW 6.2 mph 8.1 mph 52% 0 in 828.00 W/m2 unknown
12:14 82.4 °F 60.8 °F 30.1 in NW 4.3 mph 6.2 mph 49% 0 in 830.00 W/m2 unknown
12:19 84.2 °F 64.4 °F 30.1 in NW 5 mph 6.2 mph 55% 0 in 831.00 W/m2 unknown
12:24 84.2 °F 62.6 °F 30.1 in WSW 5 mph 6.2 mph 51% 0 in 840.00 W/m2 unknown
12:29 82.4 °F 64.4 °F 30.1 in WSW 5 mph 6.8 mph 52% 0 in 849.00 W/m2 unknown
12:34 84.2 °F 62.6 °F 30.1 in West 5 mph 6.8 mph 49% 0 in 849.00 W/m2 unknown
12:39 84.2 °F 62.6 °F 30.1 in WNW 4.3 mph 6.8 mph 51% 0 in 853.00 W/m2 unknown
12:44 82.4 °F 62.6 °F 30.1 in WSW 3.1 mph 6.2 mph 50% 0 in 854.00 W/m2 unknown
12:49 84.2 °F 62.6 °F 30.1 in SSE 3.1 mph 5 mph 49% 0 in 863.00 W/m2 unknown
12:54 82.4 °F 62.6 °F 30.1 in South 3.1 mph 5 mph 49% 0 in 868.00 W/m2 unknown
12:59 84.2 °F 62.6 °F 30.1 in SSE 3.1 mph 3.7 mph 49% 0 in 872.00 W/m2 unknown
13:04 84.2 °F 62.6 °F 30.1 in ESE 8.7 mph 10.6 mph 49% 0 in 881.00 W/m2 unknown
13:09 84.2 °F 62.6 °F 30.1 in SSE 5 mph 9.9 mph 51% 0 in 881.00 W/m2 unknown
13:14 84.2 °F 62.6 °F 30.1 in ESE 5 mph 8.1 mph 49% 0 in 877.00 W/m2 unknown
13:19 84.2 °F 64.4 °F 30.1 in ESE 5 mph 8.1 mph 50% 0 in 881.00 W/m2 unknown
13:24 84.2 °F 60.8 °F 30.1 in ESE 8.1 mph 9.9 mph 46% 0 in 882.00 W/m2 unknown
13:29 84.2 °F 60.8 °F 30.1 in East 8.1 mph 10.6 mph 45% 0 in 877.00 W/m2 unknown
13:34 84.2 °F 59 °F 30.1 in East 6.2 mph 9.9 mph 43% 0 in 884.00 W/m2 unknown
13:39 84.2 °F 60.8 °F 30.1 in East 7.5 mph 9.3 mph 46% 0 in 886.00 W/m2 unknown
13:44 84.2 °F 59 °F 30.1 in ESE 7.5 mph 9.3 mph 43% 0 in 888.00 W/m2 unknown
13:49 84.2 °F 59 °F 30.1 in ESE 6.2 mph 8.7 mph 42% 0 in 884.00 W/m2 unknown
13:54 84.2 °F 59 °F 30.1 in East 5 mph 8.1 mph 43% 0 in 879.00 W/m2 unknown
13:59 86 °F 60.8 °F 30.1 in ENE 6.2 mph 8.1 mph 44% 0 in 884.00 W/m2 unknown
14:04 86 °F 59 °F 30.1 in ESE 6.2 mph 8.1 mph 42% 0 in 884.00 W/m2 unknown
14:09 84.2 °F 55.4 °F 30.1 in East 6.8 mph 10.6 mph 37% 0 in 884.00 W/m2 unknown
14:14 84.2 °F 59 °F 30.1 in East 6.8 mph 9.9 mph 43% 0 in 882.00 W/m2 unknown
14:19 84.2 °F 59 °F 30.1 in South 3.1 mph 8.1 mph 42% 0 in 884.00 W/m2 unknown
14:24 84.2 °F 60.8 °F 30.1 in SW 1.9 mph 3.7 mph 44% 0 in 882.00 W/m2 unknown
14:29 86 °F 60.8 °F 30.1 in ENE 5 mph 6.8 mph 44% 0 in 879.00 W/m2 unknown
14:34 86 °F 59 °F 30.1 in ENE 6.2 mph 6.8 mph 41% 0 in 874.00 W/m2 unknown
14:39 86 °F 59 °F 30.1 in East 6.8 mph 8.1 mph 42% 0 in 870.00 W/m2 unknown
14:44 86 °F 60.8 °F 30.1 in ESE 6.8 mph 8.1 mph 43% 0 in 868.00 W/m2 unknown
14:49 84.2 °F 59 °F 30.1 in ESE 5 mph 8.1 mph 42% 0 in 860.00 W/m2 unknown
14:54 86 °F 59 °F 30.1 in SSE 5 mph 6.8 mph 41% 0 in 854.00 W/m2 unknown
14:59 86 °F 59 °F 30.1 in SW 3.7 mph 6.2 mph 42% 0 in 847.00 W/m2 unknown
15:04 86 °F 59 °F 30.1 in ESE 4.3 mph 6.8 mph 41% 0 in 846.00 W/m2 unknown
15:09 86 °F 59 °F 30.1 in ENE 5 mph 6.8 mph 39% 0 in 838.00 W/m2 unknown
15:14 86 °F 59 °F 30.1 in ENE 3.7 mph 6.8 mph 39% 0 in 833.00 W/m2 unknown
15:19 86 °F 59 °F 30.1 in SSE 3.1 mph 5 mph 39% 0 in 826.00 W/m2 unknown
15:24 86 °F 59 °F 30.1 in SSW 3.1 mph 5 mph 40% 0 in 817.00 W/m2 unknown
15:29 86 °F 60.8 °F 30.1 in SSW 4.3 mph 6.8 mph 42% 0 in 809.00 W/m2 unknown
15:34 87.8 °F 60.8 °F 30.1 in South 5 mph 6.8 mph 42% 0 in 796.00 W/m2 unknown
15:39 87.8 °F 60.8 °F 30.1 in SSW 5 mph 6.8 mph 40% 0 in 795.00 W/m2 unknown
15:44 86 °F 59 °F 30.1 in SSW 5 mph 6.2 mph 40% 0 in 782.00 W/m2 unknown
15:49 86 °F 60.8 °F 30.1 in WSW 5 mph 6.2 mph 42% 0 in 773.00 W/m2 unknown
15:54 86 °F 60.8 °F 30.1 in SW 5 mph 6.2 mph 42% 0 in 765.00 W/m2 unknown
15:59 86 °F 60.8 °F 30.1 in SW 4.3 mph 6.2 mph 43% 0 in 756.00 W/m2 unknown
16:04 87.8 °F 62.6 °F 30.1 in South 6.2 mph 9.3 mph 43% 0 in 744.00 W/m2 unknown
16:09 87.8 °F 60.8 °F 30.1 in SSW 3.7 mph 8.7 mph 41% 0 in 731.00 W/m2 unknown
16:14 87.8 °F 60.8 °F 30.1 in SSW 4.3 mph 6.8 mph 41% 0 in 722.00 W/m2 unknown
16:19 86 °F 60.8 °F 30.1 in East 5.6 mph 6.8 mph 41% 0 in 710.00 W/m2 unknown
16:24 87.8 °F 62.6 °F 30.1 in South 9.3 mph 13 mph 45% 0 in 701.00 W/m2 unknown
16:29 87.8 °F 60.8 °F 30.1 in South 8.7 mph 13 mph 41% 0 in 694.00 W/m2 unknown
16:34 86 °F 59 °F 30.1 in SW 6.8 mph 11.8 mph 40% 0 in 682.00 W/m2 unknown
16:39 87.8 °F 60.8 °F 30.1 in WSW 3.1 mph 8.1 mph 41% 0 in 670.00 W/m2 unknown
16:44 87.8 °F 60.8 °F 30.1 in SSE 6.2 mph 8.1 mph 42% 0 in 657.00 W/m2 unknown
16:49 87.8 °F 60.8 °F 30.1 in SSW 6.2 mph 8.1 mph 42% 0 in 647.00 W/m2 unknown
16:54 87.8 °F 60.8 °F 30.1 in SW 6.2 mph 6.8 mph 40% 0 in 635.00 W/m2 unknown
16:59 87.8 °F 60.8 °F 30.1 in SW 5 mph 6.8 mph 41% 0 in 622.00 W/m2 unknown
17:04 87.8 °F 59 °F 30.1 in SW 5 mph 6.2 mph 40% 0 in 612.00 W/m2 unknown
17:09 87.8 °F 60.8 °F 30.1 in SW 5.6 mph 6.8 mph 41% 0 in 599.00 W/m2 unknown
17:14 87.8 °F 59 °F 30.1 in WSW 5 mph 6.8 mph 39% 0 in 592.00 W/m2 unknown
17:19 87.8 °F 59 °F 30.1 in SSW 5 mph 6.8 mph 39% 0 in 575.00 W/m2 unknown
17:24 87.8 °F 59 °F 30.1 in SSW 6.2 mph 9.3 mph 39% 0 in 568.00 W/m2 unknown
17:29 87.8 °F 59 °F 30.1 in SSW 6.2 mph 9.3 mph 38% 0 in 552.00 W/m2 unknown
17:34 87.8 °F 59 °F 30.1 in SW 5 mph 8.7 mph 38% 0 in 543.00 W/m2 unknown
17:39 86 °F 59 °F 30.1 in SSW 5 mph 6.8 mph 38% 0 in 527.00 W/m2 unknown
17:44 86 °F 59 °F 30.1 in SSW 3.7 mph 6.8 mph 39% 0 in 517.00 W/m2 unknown
17:49 87.8 °F 59 °F 30.1 in South 2.5 mph 5 mph 39% 0 in 499.00 W/m2 unknown
17:54 87.8 °F 59 °F 30.1 in SW 6.8 mph 9.3 mph 40% 0 in 485.00 W/m2 unknown
17:59 87.8 °F 57.2 °F 30.1 in SSW 6.8 mph 8.7 mph 37% 0 in 475.00 W/m2 unknown
18:04 87.8 °F 59 °F 30.1 in SSE 5 mph 6.8 mph 39% 0 in 461.00 W/m2 unknown
18:09 86 °F 59 °F 30.1 in SE 3.7 mph 6.2 mph 40% 0 in 443.00 W/m2 unknown
18:14 86 °F 60.8 °F 30.1 in ESE 3.1 mph 5 mph 42% 0 in 427.00 W/m2 unknown
18:19 87.8 °F 59 °F 30.1 in SSE 3.1 mph 5 mph 41% 0 in 415.00 W/m2 unknown
18:24 87.8 °F 59 °F 30.1 in SW 3.7 mph 5 mph 38% 0 in 401.00 W/m2 unknown
18:29 87.8 °F 59 °F 30.1 in SW 3.7 mph 5 mph 39% 0 in 388.00 W/m2 unknown
18:34 87.8 °F 59 °F 30.1 in SSW 3.1 mph 5 mph 38% 0 in 374.00 W/m2 unknown
18:39 87.8 °F 59 °F 30.1 in ESE 3.1 mph 3.7 mph 40% 0 in 359.00 W/m2 unknown
18:44 86 °F 59 °F 30.1 in ESE 3.1 mph 3.7 mph 40% 0 in 343.00 W/m2 unknown
18:49 86 °F 59 °F 30.1 in South 4.3 mph 6.2 mph 38% 0 in 327.00 W/m2 unknown
18:54 86 °F 59 °F 30.1 in SE 3.1 mph 6.2 mph 39% 0 in 313.00 W/m2 unknown
18:59 86 °F 59 °F 30.1 in ESE 4.3 mph 6.8 mph 39% 0 in 299.00 W/m2 unknown
19:04 86 °F 59 °F 30.1 in SSE 5 mph 6.8 mph 40% 0 in 285.00 W/m2 unknown
19:09 86 °F 60.8 °F 30.1 in ESE 3.7 mph 5 mph 43% 0 in 269.00 W/m2 unknown
19:14 86 °F 60.8 °F 30.1 in SE 3.1 mph 5 mph 44% 0 in 255.00 W/m2 unknown
19:19 86 °F 60.8 °F 30.1 in SE 3.1 mph 5 mph 44% 0 in 241.00 W/m2 unknown
19:24 86 °F 60.8 °F 30.1 in SE 3.7 mph 5 mph 45% 0 in 229.00 W/m2 unknown
19:29 84.2 °F 60.8 °F 30.1 in ESE 3.7 mph 4.3 mph 44% 0 in 213.00 W/m2 unknown
19:34 84.2 °F 60.8 °F 30.1 in SE 3.1 mph 5 mph 45% 0 in 197.00 W/m2 unknown
19:39 84.2 °F 62.6 °F 30.1 in ESE 3.1 mph 3.7 mph 47% 0 in 183.00 W/m2 unknown
19:44 84.2 °F 62.6 °F 30.1 in ESE 3.1 mph 3.7 mph 48% 0 in 165.00 W/m2 unknown
19:49 84.2 °F 60.8 °F 30.1 in ESE 2.5 mph 3.7 mph 47% 0 in 148.00 W/m2 unknown
19:54 84.2 °F 60.8 °F 30.1 in SE 1.9 mph 3.7 mph 46% 0 in 130.00 W/m2 unknown
19:59 84.2 °F 60.8 °F 30.1 in SE 2.5 mph 3.7 mph 46% 0 in 114.00 W/m2 unknown
20:04 84.2 °F 60.8 °F 30.1 in ESE 2.5 mph 5 mph 47% 0 in 91.00 W/m2 unknown
20:09 84.2 °F 60.8 °F 30.1 in SE 2.5 mph 5 mph 46% 0 in 83.00 W/m2 unknown
20:14 82.4 °F 60.8 °F 30.1 in SE 1.9 mph 3.7 mph 46% 0 in 49.00 W/m2 unknown
20:19 82.4 °F 60.8 °F 30.1 in SE 2.5 mph 3.7 mph 47% 0 in 21.00 W/m2 unknown
20:24 82.4 °F 60.8 °F 30.1 in SE 1.9 mph 3.7 mph 48% 0 in 19.00 W/m2 unknown
20:29 82.4 °F 60.8 °F 30.1 in SE 1.9 mph 3.7 mph 48% 0 in 18.00 W/m2 unknown
20:34 82.4 °F 60.8 °F 30.1 in SE 1.9 mph 3.7 mph 48% 0 in 16.00 W/m2 unknown
20:39 82.4 °F 60.8 °F 30.1 in SE 1.9 mph 3.7 mph 48% 0 in 14.00 W/m2 unknown
20:44 82.4 °F 60.8 °F 30.1 in SE 1.9 mph 3.7 mph 48% 0 in 12.00 W/m2 unknown
20:49 80.6 °F 60.8 °F 30.1 in SE 2.5 mph 3.7 mph 49% 0 in 11.00 W/m2 unknown
20:54 80.6 °F 60.8 °F 30.1 in ESE 1.2 mph 3.1 mph 50% 0 in 9.00 W/m2 unknown
20:59 80.6 °F 60.8 °F 30.1 in SE 1.9 mph 3.1 mph 51% 0 in 7.00 W/m2 unknown
21:04 80.6 °F 60.8 °F 30.1 in SE 1.2 mph 3.7 mph 51% 0 in 5.00 W/m2 unknown
21:09 80.6 °F 60.8 °F 30.1 in SE 1.9 mph 3.1 mph 52% 0 in 0.00 W/m2 unknown
21:14 78.8 °F 60.8 °F 30.1 in ESE 2.5 mph 3.7 mph 53% 0 in 0.00 W/m2 unknown
21:19 78.8 °F 60.8 °F 30.1 in ESE 7.5 mph 11.8 mph 55% 0 in 0.00 W/m2 unknown
21:24 78.8 °F 60.8 °F 30.1 in ESE 8.1 mph 11.8 mph 56% 0 in 0.00 W/m2 unknown
21:29 78.8 °F 60.8 °F 30.1 in SE 6.8 mph 11.8 mph 56% 0 in 0.00 W/m2 unknown
21:34 78.8 °F 60.8 °F 30.1 in SE 6.8 mph 9.3 mph 55% 0 in 0.00 W/m2 unknown
21:39 77 °F 59 °F 30.1 in ESE 6.2 mph 9.3 mph 54% 0 in 0.00 W/m2 unknown
21:44 77 °F 59 °F 30.1 in SE 5.6 mph 8.7 mph 54% 0 in 0.00 W/m2 unknown
21:49 77 °F 59 °F 30.1 in ESE 6.2 mph 8.1 mph 54% 0 in 0.00 W/m2 unknown
21:54 77 °F 59 °F 30.1 in ESE 5 mph 8.1 mph 54% 0 in 0.00 W/m2 unknown
21:59 77 °F 59 °F 30.1 in SSE 3.1 mph 8.1 mph 54% 0 in 0.00 W/m2 unknown
22:04 77 °F 59 °F 30.1 in SSE 1.9 mph 6.8 mph 54% 0 in 0.00 W/m2 unknown
22:09 77 °F 59 °F 30.1 in SSE 1.9 mph 3.1 mph 55% 0 in 0.00 W/m2 unknown
22:14 77 °F 59 °F 30.1 in SSE 1.2 mph 2.5 mph 55% 0 in 0.00 W/m2 unknown
22:19 77 °F 59 °F 30.1 in SSE 1.2 mph 2.5 mph 56% 0 in 0.00 W/m2 unknown
22:24 77 °F 59 °F 30.1 in SSW 1.9 mph 3.7 mph 58% 0 in 0.00 W/m2 unknown
22:29 75.2 °F 59 °F 30.1 in SSW 1.9 mph 3.7 mph 58% 0 in 0.00 W/m2 unknown
22:34 75.2 °F 59 °F 30.1 in South 1.9 mph 3.7 mph 57% 0 in 0.00 W/m2 unknown
22:39 75.2 °F 59 °F 30.1 in South 1.2 mph 3.1 mph 57% 0 in 0.00 W/m2 unknown
22:44 75.2 °F 59 °F 30.1 in SSE 1.9 mph 3.7 mph 57% 0 in 0.00 W/m2 unknown
22:49 75.2 °F 59 °F 30.1 in SE 2.5 mph 3.7 mph 57% 0 in 0.00 W/m2 unknown
22:54 75.2 °F 59 °F 30.1 in SE 1.9 mph 3.7 mph 56% 0 in 0.00 W/m2 unknown
22:59 75.2 °F 59 °F 30.1 in SSE 1.9 mph 3.7 mph 58% 0 in 0.00 W/m2 unknown
23:04 75.2 °F 59 °F 30.1 in SSE 1.9 mph 3.7 mph 57% 0 in 0.00 W/m2 unknown
23:09 75.2 °F 59 °F 30.1 in SE 1.9 mph 3.7 mph 57% 0 in 0.00 W/m2 unknown
23:14 75.2 °F 57.2 °F 30.1 in SE 3.1 mph 5 mph 56% 0 in 0.00 W/m2 unknown
23:19 75.2 °F 57.2 °F 30.1 in SE 3.1 mph 5 mph 55% 0 in 0.00 W/m2 unknown
23:24 73.4 °F 57.2 °F 30.1 in ESE 1.9 mph 5 mph 56% 0 in 0.00 W/m2 unknown
23:29 73.4 °F 57.2 °F 30.1 in ESE 1.2 mph 3.1 mph 59% 0 in 0.00 W/m2 unknown
23:34 73.4 °F 59 °F 30.1 in SE 1.9 mph 3.7 mph 60% 0 in 0.00 W/m2 unknown
23:39 73.4 °F 59 °F 30.1 in SE 1.9 mph 3.7 mph 60% 0 in 0.00 W/m2 unknown
23:44 73.4 °F 59 °F 30.1 in ESE 2.5 mph 3.7 mph 60% 0 in 0.00 W/m2 unknown
23:49 73.4 °F 57.2 °F 30.1 in ESE 1.9 mph 3.7 mph 60% 0 in 0.00 W/m2 unknown
23:54 73.4 °F 59 °F 30.1 in ESE 1.9 mph 3.1 mph 61% 0 in 0.00 W/m2 unknown
23:59 71.6 °F 59 °F 30.1 in East 1.9 mph 3.1 mph 62% 0 in 0.00 W/m2 unknown
Stazione Meteorologica MeteoMincio Rivalta s/M (MN)
Con i complimenti di Weather Underground - 2 mb



GLOSSARIO METEOROLOGICO
Pioggia
Precipitazione di gocce d'acqua di vario diametro, tra 0,5 e 7 mm. Le gocce di pioggia traggono origine dalle gocce di nube: quando quest'ultime diventano abbastanza grosse da poter cadere prendono il nome di gocce di pioggia. Una goccia di pioggia contiene circa centomila goccioline di nube e si forma per coalescenza fra gocce di nube piccole e più grosse. La pioggia minuta e persistente cade dagli altostrati che partono da quote molto basse. La pioggia intensa è prodotta dai nembostrati. Tanto più intensa è la pioggia, tanto è maggiore è lo sviluppo verticale della nube alla cui sommità sono presenti cristalli di ghiaccio. L'unità di misura adottata è il millimetro, che equivale ad un litro d'acqua per metro quadrato di superficie.
Share

Non seguire questo link o sarai bannato dal sito!